Magic Sun — D54895U — position and weather

sailwx.info

Track history (hours):
 
Tides and Currents Weather Stations Pressure Air Temp Water Temp Dewpoint Dewpoint Depression Visibility Wind Speed Wind Dir Waves Ship Positions

Magic Sun

Last reported at 2017-Oct-15 13:58 UTC. Time now 2017-Oct-17 07:51 UTC.
Position N 49°29' E 000°06'.

Length 10 m.

Type: Sailing vessel. MMSI: 227018810.

Date/timePositionNaut miles runAvg speedWind from/ knotsBaromVisibWave heightAir tempDewpointWater temp
2017-Oct-15 13:58N 49°29' E 000°06'1 1.3
2017-Oct-15 13:30N 49°29' E 000°05'2 4.9
2017-Oct-15 13:00N 49°29' E 000°01'2 4.3
2017-Oct-15 12:30N 49°28' W 000°02'1 0.3
2017-Oct-15 09:28N 49°28' W 000°02'2 5.0
2017-Oct-15 09:00N 49°29' E 000°01'2 3.5
2017-Oct-15 08:30N 49°29' E 000°04'1 2.5
2017-Oct-15 08:00N 49°29' E 000°06'  
2017-Oct-08 15:33N 49°29' E 000°06'0 0.0
2017-Oct-08 15:27N 49°29' E 000°06'0 0.0
2017-Oct-08 10:20N 49°29' E 000°06'  
Track history (hours):
 
Tides and Currents Weather Stations Pressure Air Temp Water Temp Dewpoint Dewpoint Depression Visibility Wind Speed Wind Dir Waves Ship Positions

Magic Sun

Last reported at 2017-Oct-15 13:58 UTC. Time now 2017-Oct-17 07:51 UTC.
Position N 49°29' E 000°06'.

Length 10 m.

Type: Sailing vessel. MMSI: 227018810.

Date/timePositionNaut miles runAvg speedWind from/ knotsBaromVisibWave heightAir tempDewpointWater temp
2017-Oct-15 13:58N 49°29' E 000°06'1 1.3
2017-Oct-15 13:30N 49°29' E 000°05'2 4.9
2017-Oct-15 13:00N 49°29' E 000°01'2 4.3
2017-Oct-15 12:30N 49°28' W 000°02'1 0.3
2017-Oct-15 09:28N 49°28' W 000°02'2 5.0
2017-Oct-15 09:00N 49°29' E 000°01'2 3.5
2017-Oct-15 08:30N 49°29' E 000°04'1 2.5
2017-Oct-15 08:00N 49°29' E 000°06'  
2017-Oct-08 15:33N 49°29' E 000°06'0 0.0
2017-Oct-08 15:27N 49°29' E 000°06'0 0.0
2017-Oct-08 10:20N 49°29' E 000°06'  

Dump ship's entire track history